sensor_id;sensor_type;location;lat;lon;timestamp;pressure;altitude;pressure_sealevel;temperature;humidity
74794;BME280;63320;50.768;6.724;2024-02-26T00:01:49;98372.16;;;8.42;79.20
74794;BME280;63320;50.768;6.724;2024-02-26T00:04:14;98367.03;;;8.41;79.66
74794;BME280;63320;50.768;6.724;2024-02-26T00:06:39;98364.38;;;8.02;80.18
74794;BME280;63320;50.768;6.724;2024-02-26T00:09:06;98366.69;;;8.32;80.14
74794;BME280;63320;50.768;6.724;2024-02-26T00:11:32;98367.66;;;8.19;80.09
74794;BME280;63320;50.768;6.724;2024-02-26T00:13:57;98360.59;;;8.32;80.56
74794;BME280;63320;50.768;6.724;2024-02-26T00:16:22;98363.66;;;8.26;80.67
74794;BME280;63320;50.768;6.724;2024-02-26T00:18:48;98364.66;;;7.98;80.74
74794;BME280;63320;50.768;6.724;2024-02-26T00:21:13;98359.13;;;8.28;80.47
74794;BME280;63320;50.768;6.724;2024-02-26T00:23:39;98361.97;;;8.12;79.58
74794;BME280;63320;50.768;6.724;2024-02-26T00:26:05;98356.44;;;8.29;80.79
74794;BME280;63320;50.768;6.724;2024-02-26T00:28:31;98350.88;;;8.21;81.61
74794;BME280;63320;50.768;6.724;2024-02-26T00:30:56;98356.97;;;8.09;81.31
74794;BME280;63320;50.768;6.724;2024-02-26T00:33:22;98357.97;;;8.07;81.87
74794;BME280;63320;50.768;6.724;2024-02-26T00:35:47;98360.72;;;8.05;82.42
74794;BME280;63320;50.768;6.724;2024-02-26T00:38:13;98353.16;;;7.88;82.91
74794;BME280;63320;50.768;6.724;2024-02-26T00:40:38;98351.59;;;7.98;82.74
74794;BME280;63320;50.768;6.724;2024-02-26T00:43:05;98343.53;;;8.01;82.74
74794;BME280;63320;50.768;6.724;2024-02-26T00:45:30;98347.53;;;7.94;82.54
74794;BME280;63320;50.768;6.724;2024-02-26T00:47:56;98352.03;;;8.43;81.50
74794;BME280;63320;50.768;6.724;2024-02-26T00:50:21;98344.50;;;8.25;80.56
74794;BME280;63320;50.768;6.724;2024-02-26T00:52:46;98335.72;;;8.14;81.47
74794;BME280;63320;50.768;6.724;2024-02-26T00:55:12;98343.97;;;8.20;80.94
74794;BME280;63320;50.768;6.724;2024-02-26T00:57:37;98346.38;;;8.11;81.71
74794;BME280;63320;50.768;6.724;2024-02-26T01:00:05;98348.47;;;8.05;81.56
74794;BME280;63320;50.768;6.724;2024-02-26T01:02:31;98347.31;;;8.22;81.01
74794;BME280;63320;50.768;6.724;2024-02-26T01:04:56;98349.38;;;7.92;82.63
74794;BME280;63320;50.768;6.724;2024-02-26T01:07:21;98354.84;;;8.27;81.65
74794;BME280;63320;50.768;6.724;2024-02-26T01:09:47;98345.13;;;8.03;82.27
74794;BME280;63320;50.768;6.724;2024-02-26T01:12:12;98338.63;;;8.09;81.79
74794;BME280;63320;50.768;6.724;2024-02-26T01:14:38;98352.97;;;8.03;82.50
74794;BME280;63320;50.768;6.724;2024-02-26T01:17:04;98346.59;;;8.20;81.88
74794;BME280;63320;50.768;6.724;2024-02-26T01:19:30;98350.88;;;7.83;81.95
74794;BME280;63320;50.768;6.724;2024-02-26T01:21:55;98350.34;;;7.91;83.81
74794;BME280;63320;50.768;6.724;2024-02-26T01:24:21;98340.19;;;8.12;82.74
74794;BME280;63320;50.768;6.724;2024-02-26T01:26:46;98348.13;;;7.97;82.55
74794;BME280;63320;50.768;6.724;2024-02-26T01:29:11;98337.25;;;7.91;83.34
74794;BME280;63320;50.768;6.724;2024-02-26T01:31:37;98342.59;;;8.27;82.44
74794;BME280;63320;50.768;6.724;2024-02-26T01:34:03;98338.94;;;8.17;82.04
74794;BME280;63320;50.768;6.724;2024-02-26T01:36:29;98337.78;;;7.96;83.59
74794;BME280;63320;50.768;6.724;2024-02-26T01:38:54;98333.16;;;8.12;82.29
74794;BME280;63320;50.768;6.724;2024-02-26T01:41:20;98334.13;;;7.98;83.64
74794;BME280;63320;50.768;6.724;2024-02-26T01:43:45;98319.88;;;8.15;83.65
74794;BME280;63320;50.768;6.724;2024-02-26T01:46:12;98325.41;;;7.85;84.15
74794;BME280;63320;50.768;6.724;2024-02-26T01:48:38;98326.06;;;8.01;84.25
74794;BME280;63320;50.768;6.724;2024-02-26T01:51:05;98326.28;;;7.98;84.38
74794;BME280;63320;50.768;6.724;2024-02-26T01:53:31;98316.63;;;8.12;83.77
74794;BME280;63320;50.768;6.724;2024-02-26T01:55:56;98326.88;;;8.27;83.36
74794;BME280;63320;50.768;6.724;2024-02-26T01:58:22;98324.38;;;7.88;84.26
74794;BME280;63320;50.768;6.724;2024-02-26T02:00:48;98322.63;;;8.14;83.83
74794;BME280;63320;50.768;6.724;2024-02-26T02:03:14;98325.84;;;7.79;84.09
74794;BME280;63320;50.768;6.724;2024-02-26T02:05:39;98325.03;;;8.04;84.40
74794;BME280;63320;50.768;6.724;2024-02-26T02:08:07;98324.69;;;7.96;84.23
74794;BME280;63320;50.768;6.724;2024-02-26T02:10:32;98325.91;;;7.77;83.76
74794;BME280;63320;50.768;6.724;2024-02-26T02:12:57;98319.25;;;7.86;85.40
74794;BME280;63320;50.768;6.724;2024-02-26T02:15:23;98320.41;;;7.95;85.01
74794;BME280;63320;50.768;6.724;2024-02-26T02:17:48;98323.44;;;8.14;83.63
74794;BME280;63320;50.768;6.724;2024-02-26T02:20:15;98325.53;;;8.22;83.91
74794;BME280;63320;50.768;6.724;2024-02-26T02:22:42;98324.25;;;8.27;83.76
74794;BME280;63320;50.768;6.724;2024-02-26T02:25:08;98315.47;;;7.90;84.37
74794;BME280;63320;50.768;6.724;2024-02-26T02:27:33;98319.03;;;8.27;84.64
74794;BME280;63320;50.768;6.724;2024-02-26T02:29:59;98320.53;;;8.19;84.38
74794;BME280;63320;50.768;6.724;2024-02-26T02:32:25;98316.13;;;7.94;84.61
74794;BME280;63320;50.768;6.724;2024-02-26T02:34:51;98306.91;;;7.88;85.66
74794;BME280;63320;50.768;6.724;2024-02-26T02:37:17;98308.47;;;8.16;84.56
74794;BME280;63320;50.768;6.724;2024-02-26T02:39:43;98324.41;;;7.48;85.85
74794;BME280;63320;50.768;6.724;2024-02-26T02:42:09;98326.06;;;8.14;84.99
74794;BME280;63320;50.768;6.724;2024-02-26T02:44:34;98320.19;;;8.11;84.54
74794;BME280;63320;50.768;6.724;2024-02-26T02:47:00;98317.91;;;7.93;85.39
74794;BME280;63320;50.768;6.724;2024-02-26T02:49:25;98327.09;;;7.86;85.21
74794;BME280;63320;50.768;6.724;2024-02-26T02:51:50;98329.09;;;8.21;83.92
74794;BME280;63320;50.768;6.724;2024-02-26T02:54:16;98332.88;;;8.04;83.50
74794;BME280;63320;50.768;6.724;2024-02-26T02:56:43;98331.38;;;8.13;85.02
74794;BME280;63320;50.768;6.724;2024-02-26T02:59:08;98332.09;;;7.76;85.65
74794;BME280;63320;50.768;6.724;2024-02-26T03:01:33;98328.66;;;8.01;85.36
74794;BME280;63320;50.768;6.724;2024-02-26T03:03:59;98324.69;;;7.96;85.99
74794;BME280;63320;50.768;6.724;2024-02-26T03:06:24;98331.19;;;8.16;84.48
74794;BME280;63320;50.768;6.724;2024-02-26T03:08:49;98327.47;;;7.67;85.96
74794;BME280;63320;50.768;6.724;2024-02-26T03:11:15;98321.72;;;7.62;87.74
74794;BME280;63320;50.768;6.724;2024-02-26T03:13:42;98316.44;;;7.37;87.32
74794;BME280;63320;50.768;6.724;2024-02-26T03:16:08;98314.50;;;7.66;86.50
74794;BME280;63320;50.768;6.724;2024-02-26T03:18:33;98316.75;;;7.85;86.40
74794;BME280;63320;50.768;6.724;2024-02-26T03:20:58;98320.91;;;7.74;87.24
74794;BME280;63320;50.768;6.724;2024-02-26T03:23:24;98310.88;;;7.94;86.55
74794;BME280;63320;50.768;6.724;2024-02-26T03:25:49;98309.88;;;7.57;87.99
74794;BME280;63320;50.768;6.724;2024-02-26T03:28:15;98311.94;;;7.78;87.97
74794;BME280;63320;50.768;6.724;2024-02-26T03:30:41;98313.16;;;7.73;86.53
74794;BME280;63320;50.768;6.724;2024-02-26T03:33:07;98308.56;;;8.02;86.09
74794;BME280;63320;50.768;6.724;2024-02-26T03:35:32;98309.19;;;7.80;86.41
74794;BME280;63320;50.768;6.724;2024-02-26T03:37:57;98314.63;;;8.02;87.19
74794;BME280;63320;50.768;6.724;2024-02-26T03:40:23;98320.84;;;7.89;87.28
74794;BME280;63320;50.768;6.724;2024-02-26T03:42:48;98321.88;;;7.99;87.46
74794;BME280;63320;50.768;6.724;2024-02-26T03:45:14;98323.00;;;7.69;87.64
74794;BME280;63320;50.768;6.724;2024-02-26T03:47:41;98323.13;;;8.06;87.86
74794;BME280;63320;50.768;6.724;2024-02-26T03:50:07;98324.28;;;8.02;87.86
74794;BME280;63320;50.768;6.724;2024-02-26T03:52:33;98321.88;;;7.99;87.52
74794;BME280;63320;50.768;6.724;2024-02-26T03:54:58;98330.25;;;8.04;87.64
74794;BME280;63320;50.768;6.724;2024-02-26T03:57:24;98335.78;;;7.74;88.66
74794;BME280;63320;50.768;6.724;2024-02-26T03:59:49;98335.34;;;7.93;88.45
74794;BME280;63320;50.768;6.724;2024-02-26T04:02:16;98338.09;;;8.17;88.12
74794;BME280;63320;50.768;6.724;2024-02-26T04:04:42;98345.09;;;7.91;89.09
74794;BME280;63320;50.768;6.724;2024-02-26T04:07:08;98342.69;;;7.75;89.70
74794;BME280;63320;50.768;6.724;2024-02-26T04:09:33;98335.34;;;7.80;90.77
74794;BME280;63320;50.768;6.724;2024-02-26T04:11:59;98340.31;;;7.45;91.00
74794;BME280;63320;50.768;6.724;2024-02-26T04:14:24;98347.16;;;7.60;91.21
74794;BME280;63320;50.768;6.724;2024-02-26T04:16:50;98343.47;;;7.50;91.26
74794;BME280;63320;50.768;6.724;2024-02-26T04:19:15;98342.88;;;7.72;90.81
74794;BME280;63320;50.768;6.724;2024-02-26T04:21:42;98348.16;;;8.10;88.98
74794;BME280;63320;50.768;6.724;2024-02-26T04:24:08;98342.16;;;7.83;89.90
74794;BME280;63320;50.768;6.724;2024-02-26T04:26:33;98337.28;;;8.03;89.82
74794;BME280;63320;50.768;6.724;2024-02-26T04:28:58;98332.66;;;7.94;89.42
74794;BME280;63320;50.768;6.724;2024-02-26T04:31:24;98336.63;;;8.13;88.02
74794;BME280;63320;50.768;6.724;2024-02-26T04:33:50;98338.09;;;8.04;88.96
74794;BME280;63320;50.768;6.724;2024-02-26T04:36:15;98339.56;;;8.21;88.71
74794;BME280;63320;50.768;6.724;2024-02-26T04:38:42;98334.72;;;7.64;91.22
74794;BME280;63320;50.768;6.724;2024-02-26T04:41:07;98335.47;;;7.78;89.80
74794;BME280;63320;50.768;6.724;2024-02-26T04:43:33;98343.31;;;7.78;89.81
74794;BME280;63320;50.768;6.724;2024-02-26T04:45:58;98339.00;;;7.65;90.26
74794;BME280;63320;50.768;6.724;2024-02-26T04:48:24;98335.16;;;7.96;90.63
74794;BME280;63320;50.768;6.724;2024-02-26T04:50:49;98333.19;;;7.99;89.77
74794;BME280;63320;50.768;6.724;2024-02-26T04:53:14;98330.88;;;7.95;89.95
74794;BME280;63320;50.768;6.724;2024-02-26T04:55:41;98338.53;;;8.23;89.04
74794;BME280;63320;50.768;6.724;2024-02-26T04:58:07;98338.84;;;8.06;89.71
74794;BME280;63320;50.768;6.724;2024-02-26T05:00:32;98341.72;;;7.76;90.83
74794;BME280;63320;50.768;6.724;2024-02-26T05:02:57;98343.13;;;8.07;90.22
74794;BME280;63320;50.768;6.724;2024-02-26T05:05:23;98343.66;;;7.47;91.26
74794;BME280;63320;50.768;6.724;2024-02-26T05:07:48;98339.44;;;7.97;90.67
74794;BME280;63320;50.768;6.724;2024-02-26T05:10:13;98337.47;;;7.48;89.86
74794;BME280;63320;50.768;6.724;2024-02-26T05:12:40;98338.91;;;7.92;90.26
74794;BME280;63320;50.768;6.724;2024-02-26T05:15:06;98333.69;;;7.92;89.49
74794;BME280;63320;50.768;6.724;2024-02-26T05:17:32;98341.00;;;7.87;89.51
74794;BME280;63320;50.768;6.724;2024-02-26T05:19:57;98340.94;;;8.14;89.36
74794;BME280;63320;50.768;6.724;2024-02-26T05:22:22;98339.56;;;8.08;89.33
74794;BME280;63320;50.768;6.724;2024-02-26T05:24:48;98344.94;;;7.54;89.85
74794;BME280;63320;50.768;6.724;2024-02-26T05:27:13;98345.78;;;7.67;92.16
74794;BME280;63320;50.768;6.724;2024-02-26T05:29:40;98347.06;;;7.87;90.48
74794;BME280;63320;50.768;6.724;2024-02-26T05:32:06;98350.41;;;7.76;90.10
74794;BME280;63320;50.768;6.724;2024-02-26T05:34:31;98348.03;;;7.73;92.00
74794;BME280;63320;50.768;6.724;2024-02-26T05:36:56;98348.25;;;7.96;90.62
74794;BME280;63320;50.768;6.724;2024-02-26T05:39:22;98356.88;;;7.58;91.50
74794;BME280;63320;50.768;6.724;2024-02-26T05:41:47;98355.34;;;7.81;91.18
74794;BME280;63320;50.768;6.724;2024-02-26T05:44:13;98349.16;;;7.82;91.03
74794;BME280;63320;50.768;6.724;2024-02-26T05:46:39;98356.50;;;7.90;91.00
74794;BME280;63320;50.768;6.724;2024-02-26T05:49:05;98357.03;;;7.95;91.22
74794;BME280;63320;50.768;6.724;2024-02-26T05:51:30;98360.38;;;7.84;91.55
74794;BME280;63320;50.768;6.724;2024-02-26T05:53:55;98356.59;;;7.75;90.66
74794;BME280;63320;50.768;6.724;2024-02-26T05:56:21;98362.47;;;7.92;90.72
74794;BME280;63320;50.768;6.724;2024-02-26T05:58:47;98365.16;;;7.77;93.24
74794;BME280;63320;50.768;6.724;2024-02-26T06:01:12;98369.13;;;7.70;93.18
74794;BME280;63320;50.768;6.724;2024-02-26T06:03:39;98367.53;;;7.68;92.44
74794;BME280;63320;50.768;6.724;2024-02-26T06:06:04;98370.91;;;7.70;90.97
74794;BME280;63320;50.768;6.724;2024-02-26T06:08:29;98379.06;;;7.65;92.43
74794;BME280;63320;50.768;6.724;2024-02-26T06:10:55;98380.75;;;7.66;92.26
74794;BME280;63320;50.768;6.724;2024-02-26T06:13:20;98383.88;;;7.59;92.71
74794;BME280;63320;50.768;6.724;2024-02-26T06:15:46;98381.03;;;7.62;92.13
74794;BME280;63320;50.768;6.724;2024-02-26T06:18:11;98396.72;;;7.49;93.92
74794;BME280;63320;50.768;6.724;2024-02-26T06:20:38;98395.38;;;7.29;94.27
74794;BME280;63320;50.768;6.724;2024-02-26T06:23:03;98398.28;;;7.51;93.42
74794;BME280;63320;50.768;6.724;2024-02-26T06:25:29;98408.69;;;7.66;93.34
74794;BME280;63320;50.768;6.724;2024-02-26T06:27:54;98399.06;;;7.39;93.97
74794;BME280;63320;50.768;6.724;2024-02-26T06:30:20;98405.81;;;7.56;93.53
74794;BME280;63320;50.768;6.724;2024-02-26T06:32:45;98408.88;;;7.63;93.19
74794;BME280;63320;50.768;6.724;2024-02-26T06:35:10;98414.25;;;7.47;92.57
74794;BME280;63320;50.768;6.724;2024-02-26T06:37:37;98410.22;;;7.56;93.02
74794;BME280;63320;50.768;6.724;2024-02-26T06:40:03;98417.66;;;7.62;93.72
74794;BME280;63320;50.768;6.724;2024-02-26T06:42:29;98416.63;;;7.37;92.99
74794;BME280;63320;50.768;6.724;2024-02-26T06:44:54;98421.41;;;7.31;94.43
74794;BME280;63320;50.768;6.724;2024-02-26T06:47:20;98423.00;;;7.60;93.18
74794;BME280;63320;50.768;6.724;2024-02-26T06:49:45;98429.78;;;7.90;92.26
74794;BME280;63320;50.768;6.724;2024-02-26T06:52:10;98424.13;;;7.83;92.56
74794;BME280;63320;50.768;6.724;2024-02-26T06:54:37;98432.63;;;7.60;92.77
74794;BME280;63320;50.768;6.724;2024-02-26T06:57:03;98439.84;;;7.42;93.75
74794;BME280;63320;50.768;6.724;2024-02-26T06:59:28;98439.78;;;6.88;97.04
74794;BME280;63320;50.768;6.724;2024-02-26T07:01:54;98440.25;;;6.80;97.43
74794;BME280;63320;50.768;6.724;2024-02-26T07:04:19;98446.31;;;6.81;97.99
74794;BME280;63320;50.768;6.724;2024-02-26T07:06:45;98440.13;;;6.82;98.34
74794;BME280;63320;50.768;6.724;2024-02-26T07:09:10;98444.81;;;6.62;99.32
74794;BME280;63320;50.768;6.724;2024-02-26T07:11:37;98450.41;;;6.70;99.31
74794;BME280;63320;50.768;6.724;2024-02-26T07:14:02;98445.84;;;6.60;99.38
74794;BME280;63320;50.768;6.724;2024-02-26T07:16:28;98448.91;;;6.52;99.91
74794;BME280;63320;50.768;6.724;2024-02-26T07:18:53;98458.16;;;6.58;100.00
74794;BME280;63320;50.768;6.724;2024-02-26T07:21:18;98450.03;;;6.62;99.97
74794;BME280;63320;50.768;6.724;2024-02-26T07:23:44;98458.63;;;6.79;99.10
74794;BME280;63320;50.768;6.724;2024-02-26T07:26:09;98458.63;;;6.64;99.61
74794;BME280;63320;50.768;6.724;2024-02-26T07:28:36;98467.53;;;6.46;100.00
74794;BME280;63320;50.768;6.724;2024-02-26T07:31:01;98468.59;;;6.58;100.00
74794;BME280;63320;50.768;6.724;2024-02-26T07:33:27;98475.59;;;6.71;100.00
74794;BME280;63320;50.768;6.724;2024-02-26T07:35:52;98474.94;;;6.82;99.99
74794;BME280;63320;50.768;6.724;2024-02-26T07:38:17;98477.84;;;6.63;100.00
74794;BME280;63320;50.768;6.724;2024-02-26T07:40:43;98480.78;;;6.57;100.00
74794;BME280;63320;50.768;6.724;2024-02-26T07:43:08;98481.16;;;6.51;100.00
74794;BME280;63320;50.768;6.724;2024-02-26T07:45:35;98480.44;;;6.78;100.00
74794;BME280;63320;50.768;6.724;2024-02-26T07:48:01;98493.16;;;6.84;99.88
74794;BME280;63320;50.768;6.724;2024-02-26T07:50:26;98490.16;;;6.90;99.46
74794;BME280;63320;50.768;6.724;2024-02-26T07:52:51;98489.44;;;6.88;100.00
74794;BME280;63320;50.768;6.724;2024-02-26T07:55:17;98496.09;;;6.78;100.00
74794;BME280;63320;50.768;6.724;2024-02-26T07:57:42;98498.28;;;6.85;99.96
74794;BME280;63320;50.768;6.724;2024-02-26T08:00:09;98499.22;;;6.84;100.00
74794;BME280;63320;50.768;6.724;2024-02-26T08:02:36;98500.78;;;6.87;100.00
74794;BME280;63320;50.768;6.724;2024-02-26T08:05:02;98506.94;;;6.71;100.00
74794;BME280;63320;50.768;6.724;2024-02-26T08:07:27;98505.44;;;6.67;100.00
74794;BME280;63320;50.768;6.724;2024-02-26T08:09:53;98519.91;;;6.59;100.00
74794;BME280;63320;50.768;6.724;2024-02-26T08:12:18;98509.91;;;6.65;100.00
74794;BME280;63320;50.768;6.724;2024-02-26T08:14:44;98513.28;;;6.82;100.00
74794;BME280;63320;50.768;6.724;2024-02-26T08:17:09;98522.44;;;6.74;100.00
74794;BME280;63320;50.768;6.724;2024-02-26T08:19:36;98528.31;;;6.78;100.00
74794;BME280;63320;50.768;6.724;2024-02-26T08:22:01;98530.47;;;6.86;100.00
74794;BME280;63320;50.768;6.724;2024-02-26T08:24:27;98529.81;;;6.68;100.00
74794;BME280;63320;50.768;6.724;2024-02-26T08:26:52;98537.06;;;6.77;100.00
74794;BME280;63320;50.768;6.724;2024-02-26T08:29:17;98530.94;;;6.78;100.00
74794;BME280;63320;50.768;6.724;2024-02-26T08:31:43;98532.50;;;6.81;100.00
74794;BME280;63320;50.768;6.724;2024-02-26T08:34:08;98534.38;;;6.79;100.00
74794;BME280;63320;50.768;6.724;2024-02-26T08:36:35;98551.28;;;6.73;100.00
74794;BME280;63320;50.768;6.724;2024-02-26T08:39:00;98552.41;;;6.83;100.00
74794;BME280;63320;50.768;6.724;2024-02-26T08:41:26;98556.22;;;6.92;100.00
74794;BME280;63320;50.768;6.724;2024-02-26T08:43:51;98568.78;;;6.71;100.00
74794;BME280;63320;50.768;6.724;2024-02-26T08:46:17;98563.19;;;6.63;100.00
74794;BME280;63320;50.768;6.724;2024-02-26T08:48:42;98568.13;;;6.67;100.00
74794;BME280;63320;50.768;6.724;2024-02-26T08:51:08;98569.09;;;6.81;100.00
74794;BME280;63320;50.768;6.724;2024-02-26T08:53:35;98568.13;;;6.67;100.00
74794;BME280;63320;50.768;6.724;2024-02-26T08:56:00;98575.97;;;6.82;100.00
74794;BME280;63320;50.768;6.724;2024-02-26T08:58:27;98581.59;;;6.90;100.00
74794;BME280;63320;50.768;6.724;2024-02-26T09:00:52;98582.50;;;6.74;100.00
74794;BME280;63320;50.768;6.724;2024-02-26T09:03:17;98579.00;;;6.90;100.00
74794;BME280;63320;50.768;6.724;2024-02-26T09:05:43;98589.72;;;6.55;100.00
74794;BME280;63320;50.768;6.724;2024-02-26T09:08:08;98592.19;;;6.72;100.00
74794;BME280;63320;50.768;6.724;2024-02-26T09:10:35;98594.53;;;6.77;100.00
74794;BME280;63320;50.768;6.724;2024-02-26T09:13:00;98597.34;;;6.74;100.00
74794;BME280;63320;50.768;6.724;2024-02-26T09:15:26;98597.97;;;6.78;100.00
74794;BME280;63320;50.768;6.724;2024-02-26T09:17:51;98602.19;;;6.80;100.00
74794;BME280;63320;50.768;6.724;2024-02-26T09:20:17;98606.22;;;6.56;100.00
74794;BME280;63320;50.768;6.724;2024-02-26T09:22:42;98612.72;;;6.64;100.00
74794;BME280;63320;50.768;6.724;2024-02-26T09:25:08;98612.97;;;6.60;100.00
74794;BME280;63320;50.768;6.724;2024-02-26T09:27:34;98615.53;;;6.75;100.00
74794;BME280;63320;50.768;6.724;2024-02-26T09:30:00;98617.25;;;6.61;100.00
74794;BME280;63320;50.768;6.724;2024-02-26T09:32:25;98620.81;;;6.60;100.00
74794;BME280;63320;50.768;6.724;2024-02-26T09:34:51;98624.41;;;6.57;100.00
74794;BME280;63320;50.768;6.724;2024-02-26T09:37:16;98621.31;;;6.81;100.00
74794;BME280;63320;50.768;6.724;2024-02-26T09:39:41;98624.16;;;6.62;100.00
74794;BME280;63320;50.768;6.724;2024-02-26T09:42:08;98625.00;;;6.62;100.00
74794;BME280;63320;50.768;6.724;2024-02-26T09:44:36;98622.69;;;6.72;100.00
74794;BME280;63320;50.768;6.724;2024-02-26T09:47:01;98630.47;;;6.73;100.00
74794;BME280;63320;50.768;6.724;2024-02-26T09:49:27;98628.44;;;6.79;100.00
74794;BME280;63320;50.768;6.724;2024-02-26T09:51:54;98637.88;;;6.65;100.00
74794;BME280;63320;50.768;6.724;2024-02-26T09:54:21;98645.72;;;6.65;100.00
74794;BME280;63320;50.768;6.724;2024-02-26T09:56:49;98649.81;;;6.85;100.00
74794;BME280;63320;50.768;6.724;2024-02-26T09:59:17;98657.69;;;6.69;100.00
74794;BME280;63320;50.768;6.724;2024-02-26T10:01:46;98646.44;;;6.83;100.00
74794;BME280;63320;50.768;6.724;2024-02-26T10:04:12;98653.09;;;6.89;100.00
74794;BME280;63320;50.768;6.724;2024-02-26T10:06:38;98656.03;;;6.83;100.00
74794;BME280;63320;50.768;6.724;2024-02-26T10:09:05;98656.44;;;6.91;100.00
74794;BME280;63320;50.768;6.724;2024-02-26T10:11:31;98654.84;;;6.88;100.00
74794;BME280;63320;50.768;6.724;2024-02-26T10:13:57;98659.25;;;6.88;100.00
74794;BME280;63320;50.768;6.724;2024-02-26T10:16:22;98667.06;;;6.58;100.00
74794;BME280;63320;50.768;6.724;2024-02-26T10:18:50;98668.81;;;6.73;100.00
74794;BME280;63320;50.768;6.724;2024-02-26T10:21:16;98670.88;;;6.82;100.00
74794;BME280;63320;50.768;6.724;2024-02-26T10:23:42;98671.81;;;6.81;100.00
74794;BME280;63320;50.768;6.724;2024-02-26T10:26:08;98664.38;;;6.89;100.00
74794;BME280;63320;50.768;6.724;2024-02-26T10:28:36;98672.25;;;6.73;100.00
74794;BME280;63320;50.768;6.724;2024-02-26T10:31:01;98670.47;;;7.04;100.00
74794;BME280;63320;50.768;6.724;2024-02-26T10:33:27;98675.50;;;7.07;100.00
74794;BME280;63320;50.768;6.724;2024-02-26T10:35:54;98671.63;;;7.14;100.00
74794;BME280;63320;50.768;6.724;2024-02-26T10:38:19;98678.69;;;7.12;100.00
74794;BME280;63320;50.768;6.724;2024-02-26T10:40:44;98683.28;;;7.09;100.00
74794;BME280;63320;50.768;6.724;2024-02-26T10:43:10;98683.59;;;6.88;100.00
74794;BME280;63320;50.768;6.724;2024-02-26T10:45:35;98678.59;;;6.99;100.00
74794;BME280;63320;50.768;6.724;2024-02-26T10:48:01;98687.47;;;7.11;100.00
74794;BME280;63320;50.768;6.724;2024-02-26T10:50:26;98694.63;;;7.08;100.00
74794;BME280;63320;50.768;6.724;2024-02-26T10:52:55;98691.97;;;7.09;100.00
74794;BME280;63320;50.768;6.724;2024-02-26T10:55:21;98703.34;;;7.08;100.00
74794;BME280;63320;50.768;6.724;2024-02-26T10:57:47;98710.25;;;7.09;100.00
74794;BME280;63320;50.768;6.724;2024-02-26T11:00:14;98711.75;;;7.13;100.00
74794;BME280;63320;50.768;6.724;2024-02-26T11:02:40;98705.59;;;7.14;100.00
74794;BME280;63320;50.768;6.724;2024-02-26T11:05:07;98714.34;;;6.99;100.00
74794;BME280;63320;50.768;6.724;2024-02-26T11:07:34;98716.06;;;7.14;100.00
74794;BME280;63320;50.768;6.724;2024-02-26T11:10:02;98717.94;;;7.26;100.00
74794;BME280;63320;50.768;6.724;2024-02-26T11:12:29;98711.50;;;7.32;100.00
74794;BME280;63320;50.768;6.724;2024-02-26T11:14:55;98722.53;;;7.23;100.00
74794;BME280;63320;50.768;6.724;2024-02-26T11:17:21;98724.84;;;7.13;100.00
74794;BME280;63320;50.768;6.724;2024-02-26T11:19:47;98727.78;;;7.07;100.00
74794;BME280;63320;50.768;6.724;2024-02-26T11:22:14;98726.41;;;7.16;100.00
74794;BME280;63320;50.768;6.724;2024-02-26T11:24:40;98732.69;;;7.27;100.00
74794;BME280;63320;50.768;6.724;2024-02-26T11:27:09;98731.00;;;7.26;100.00
74794;BME280;63320;50.768;6.724;2024-02-26T11:29:38;98739.94;;;7.08;100.00
74794;BME280;63320;50.768;6.724;2024-02-26T11:32:05;98739.47;;;7.16;100.00
74794;BME280;63320;50.768;6.724;2024-02-26T11:34:31;98744.09;;;7.26;100.00
74794;BME280;63320;50.768;6.724;2024-02-26T11:36:57;98741.66;;;7.23;100.00
74794;BME280;63320;50.768;6.724;2024-02-26T11:39:23;98746.50;;;7.15;100.00
74794;BME280;63320;50.768;6.724;2024-02-26T11:41:50;98746.63;;;7.28;100.00
74794;BME280;63320;50.768;6.724;2024-02-26T11:44:28;98751.03;;;7.12;100.00
74794;BME280;63320;50.768;6.724;2024-02-26T11:46:54;98741.66;;;7.23;100.00
74794;BME280;63320;50.768;6.724;2024-02-26T11:49:31;98748.47;;;7.26;100.00
74794;BME280;63320;50.768;6.724;2024-02-26T11:51:58;98746.34;;;7.33;100.00
74794;BME280;63320;50.768;6.724;2024-02-26T11:54:40;98744.28;;;7.38;100.00
74794;BME280;63320;50.768;6.724;2024-02-26T11:57:22;98748.56;;;7.24;100.00
74794;BME280;63320;50.768;6.724;2024-02-26T11:59:49;98744.72;;;7.16;100.00
74794;BME280;63320;50.768;6.724;2024-02-26T12:02:39;98752.69;;;7.29;100.00
74794;BME280;63320;50.768;6.724;2024-02-26T12:05:06;98751.13;;;7.10;100.00
74794;BME280;63320;50.768;6.724;2024-02-26T12:07:34;98754.22;;;7.17;100.00
74794;BME280;63320;50.768;6.724;2024-02-26T12:10:14;98758.47;;;7.19;100.00
74794;BME280;63320;50.768;6.724;2024-02-26T12:12:40;98760.88;;;7.22;100.00
74794;BME280;63320;50.768;6.724;2024-02-26T12:15:08;98770.06;;;7.30;100.00
74794;BME280;63320;50.768;6.724;2024-02-26T12:17:34;98766.50;;;7.31;100.00
74794;BME280;63320;50.768;6.724;2024-02-26T12:20:08;98777.34;;;7.24;100.00
74794;BME280;63320;50.768;6.724;2024-02-26T12:22:33;98772.19;;;7.23;100.00
74794;BME280;63320;50.768;6.724;2024-02-26T12:24:59;98783.22;;;7.28;100.00
74794;BME280;63320;50.768;6.724;2024-02-26T12:27:24;98787.13;;;7.21;100.00
74794;BME280;63320;50.768;6.724;2024-02-26T12:29:50;98796.56;;;7.23;100.00
74794;BME280;63320;50.768;6.724;2024-02-26T12:32:16;98797.34;;;7.10;100.00
74794;BME280;63320;50.768;6.724;2024-02-26T12:34:42;98807.94;;;7.22;100.00
74794;BME280;63320;50.768;6.724;2024-02-26T12:37:07;98807.25;;;7.35;100.00
74794;BME280;63320;50.768;6.724;2024-02-26T12:39:33;98813.84;;;7.26;100.00
74794;BME280;63320;50.768;6.724;2024-02-26T12:41:58;98811.66;;;7.18;100.00
74794;BME280;63320;50.768;6.724;2024-02-26T12:44:24;98818.50;;;7.05;100.00
74794;BME280;63320;50.768;6.724;2024-02-26T12:46:50;98823.13;;;7.16;100.00
74794;BME280;63320;50.768;6.724;2024-02-26T12:49:17;98827.69;;;7.28;100.00
74794;BME280;63320;50.768;6.724;2024-02-26T12:51:43;98837.19;;;7.29;100.00
74794;BME280;63320;50.768;6.724;2024-02-26T12:54:09;98838.63;;;7.35;100.00
74794;BME280;63320;50.768;6.724;2024-02-26T12:56:35;98832.63;;;7.33;100.00
74794;BME280;63320;50.768;6.724;2024-02-26T12:59:00;98844.78;;;7.34;100.00
74794;BME280;63320;50.768;6.724;2024-02-26T13:01:28;98848.16;;;7.36;100.00